Terminal Aerodrome Forecast
Issued by NWS

Home | Current Version | Previous Version | Text Only | Print | Product List | Glossary On
Versions: 1 2 3 4 5 6 7 8 9 10 11 12 13
000
FTUS42 KGSP 301739
TAFHKY
TAF
KHKY 301739Z 3018/3118 03007KT P6SM SCT050 BKN110
     FM302000 03006KT P6SM VCTS SCT045CB
      TEMPO 3021/3024 4SM TSRA OVC040CB
     FM310000 05003KT P6SM SCT250
     FM310900 35003KT 6SM BR SCT030 SCT250
     FM311300 06005KT P6SM SCT035=

USA.gov is the U.S. government's official web portal to all federal, state and local government web resources and services.